sensor_id;sensor_type;location;lat;lon;timestamp;P1;durP1;ratioP1;P2;durP2;ratioP2
9254;SDS011;4663;49.120;9.730;2023-02-01T00:01:25;22.87;;;21.70;;
9254;SDS011;4663;49.120;9.730;2023-02-01T12:10:35;14.83;;;13.87;;
9254;SDS011;4663;49.120;9.730;2023-02-01T12:18:29;14.37;;;13.17;;
9254;SDS011;4663;49.120;9.730;2023-02-01T12:21:05;13.10;;;12.20;;
9254;SDS011;4663;49.120;9.730;2023-02-01T12:23:44;14.83;;;13.33;;
9254;SDS011;4663;49.120;9.730;2023-02-01T12:34:57;23.33;;;21.70;;
9254;SDS011;4663;49.120;9.730;2023-02-01T12:48:25;28.77;;;27.07;;
9254;SDS011;4663;49.120;9.730;2023-02-01T12:50:56;33.67;;;31.33;;
9254;SDS011;4663;49.120;9.730;2023-02-01T12:53:44;33.93;;;31.87;;
9254;SDS011;4663;49.120;9.730;2023-02-01T12:56:21;34.50;;;32.23;;
9254;SDS011;4663;49.120;9.730;2023-02-01T12:58:52;30.90;;;28.83;;
9254;SDS011;4663;49.120;9.730;2023-02-01T13:06:45;30.07;;;28.00;;
9254;SDS011;4663;49.120;9.730;2023-02-01T13:09:52;28.80;;;26.20;;
9254;SDS011;4663;49.120;9.730;2023-02-01T13:12:24;28.17;;;26.10;;
9254;SDS011;4663;49.120;9.730;2023-02-01T13:17:50;23.37;;;21.53;;
9254;SDS011;4663;49.120;9.730;2023-02-01T13:25:54;18.83;;;17.37;;
9254;SDS011;4663;49.120;9.730;2023-02-01T13:42:46;25.90;;;24.07;;
9254;SDS011;4663;49.120;9.730;2023-02-01T13:45:16;24.53;;;22.70;;
9254;SDS011;4663;49.120;9.730;2023-02-01T13:47:46;21.80;;;19.97;;
9254;SDS011;4663;49.120;9.730;2023-02-01T13:52:43;17.70;;;16.43;;
9254;SDS011;4663;49.120;9.730;2023-02-01T13:57:45;18.93;;;17.40;;
9254;SDS011;4663;49.120;9.730;2023-02-01T14:10:47;17.60;;;16.20;;
9254;SDS011;4663;49.120;9.730;2023-02-01T14:26:19;21.83;;;20.20;;
9254;SDS011;4663;49.120;9.730;2023-02-01T14:28:58;19.13;;;17.67;;
9254;SDS011;4663;49.120;9.730;2023-02-01T14:36:45;23.63;;;21.83;;
9254;SDS011;4663;49.120;9.730;2023-02-01T14:39:21;26.87;;;25.03;;
9254;SDS011;4663;49.120;9.730;2023-02-01T14:41:52;28.87;;;26.73;;
9254;SDS011;4663;49.120;9.730;2023-02-01T14:44:26;33.63;;;31.57;;
9254;SDS011;4663;49.120;9.730;2023-02-01T14:49:30;37.37;;;34.97;;
9254;SDS011;4663;49.120;9.730;2023-02-01T14:51:58;35.17;;;32.73;;
9254;SDS011;4663;49.120;9.730;2023-02-01T14:54:24;38.07;;;35.73;;
9254;SDS011;4663;49.120;9.730;2023-02-01T14:56:51;44.70;;;42.03;;
9254;SDS011;4663;49.120;9.730;2023-02-01T14:59:18;38.07;;;35.10;;
9254;SDS011;4663;49.120;9.730;2023-02-01T15:01:52;39.17;;;36.67;;
9254;SDS011;4663;49.120;9.730;2023-02-01T15:04:24;40.40;;;38.20;;
9254;SDS011;4663;49.120;9.730;2023-02-01T15:06:55;44.27;;;41.43;;
9254;SDS011;4663;49.120;9.730;2023-02-01T15:12:00;47.50;;;44.53;;
9254;SDS011;4663;49.120;9.730;2023-02-01T15:15:03;48.33;;;45.47;;
9254;SDS011;4663;49.120;9.730;2023-02-01T15:17:35;47.87;;;45.07;;
9254;SDS011;4663;49.120;9.730;2023-02-01T15:20:02;45.87;;;42.93;;
9254;SDS011;4663;49.120;9.730;2023-02-01T15:22:40;43.90;;;41.20;;
9254;SDS011;4663;49.120;9.730;2023-02-01T15:25:05;41.50;;;38.10;;
9254;SDS011;4663;49.120;9.730;2023-02-01T15:27:42;44.17;;;41.30;;
9254;SDS011;4663;49.120;9.730;2023-02-01T15:30:12;44.17;;;41.57;;
9254;SDS011;4663;49.120;9.730;2023-02-01T15:32:42;43.10;;;40.63;;
9254;SDS011;4663;49.120;9.730;2023-02-01T15:40:55;57.43;;;53.27;;
9254;SDS011;4663;49.120;9.730;2023-02-01T15:43:21;49.40;;;46.03;;
9254;SDS011;4663;49.120;9.730;2023-02-01T15:46:13;49.77;;;46.87;;
9254;SDS011;4663;49.120;9.730;2023-02-01T15:48:43;51.47;;;48.50;;
9254;SDS011;4663;49.120;9.730;2023-02-01T15:51:20;47.97;;;45.37;;
9254;SDS011;4663;49.120;9.730;2023-02-01T15:53:49;48.87;;;46.40;;
9254;SDS011;4663;49.120;9.730;2023-02-01T15:56:20;50.93;;;47.93;;
9254;SDS011;4663;49.120;9.730;2023-02-01T15:58:48;46.80;;;44.23;;
9254;SDS011;4663;49.120;9.730;2023-02-01T16:01:17;49.27;;;46.47;;
9254;SDS011;4663;49.120;9.730;2023-02-01T16:03:44;51.27;;;48.17;;
9254;SDS011;4663;49.120;9.730;2023-02-01T16:11:29;49.17;;;46.53;;
9254;SDS011;4663;49.120;9.730;2023-02-01T16:13:57;47.63;;;44.90;;
9254;SDS011;4663;49.120;9.730;2023-02-01T16:16:24;50.57;;;47.77;;
9254;SDS011;4663;49.120;9.730;2023-02-01T16:18:51;52.10;;;49.23;;
9254;SDS011;4663;49.120;9.730;2023-02-01T16:21:17;48.30;;;45.43;;
9254;SDS011;4663;49.120;9.730;2023-02-01T16:23:42;51.53;;;48.33;;
9254;SDS011;4663;49.120;9.730;2023-02-01T16:26:07;44.37;;;41.43;;
9254;SDS011;4663;49.120;9.730;2023-02-01T16:28:33;41.40;;;38.80;;
9254;SDS011;4663;49.120;9.730;2023-02-01T16:30:59;38.60;;;36.30;;
9254;SDS011;4663;49.120;9.730;2023-02-01T16:33:25;35.07;;;33.03;;
9254;SDS011;4663;49.120;9.730;2023-02-01T16:35:51;29.27;;;27.17;;
9254;SDS011;4663;49.120;9.730;2023-02-01T16:38:18;24.17;;;22.43;;
9254;SDS011;4663;49.120;9.730;2023-02-01T16:40:46;21.03;;;19.63;;
9254;SDS011;4663;49.120;9.730;2023-02-01T16:43:20;17.13;;;15.87;;
9254;SDS011;4663;49.120;9.730;2023-02-01T16:45:47;18.10;;;16.80;;
9254;SDS011;4663;49.120;9.730;2023-02-01T16:48:27;17.00;;;15.80;;
9254;SDS011;4663;49.120;9.730;2023-02-01T16:50:55;16.00;;;14.80;;
9254;SDS011;4663;49.120;9.730;2023-02-01T16:53:23;18.20;;;16.67;;
9254;SDS011;4663;49.120;9.730;2023-02-01T16:55:49;17.33;;;16.13;;
9254;SDS011;4663;49.120;9.730;2023-02-01T16:58:17;18.90;;;17.17;;
9254;SDS011;4663;49.120;9.730;2023-02-01T17:00:43;18.90;;;17.30;;
9254;SDS011;4663;49.120;9.730;2023-02-01T17:03:09;18.63;;;17.03;;
9254;SDS011;4663;49.120;9.730;2023-02-01T17:05:42;18.83;;;17.40;;
9254;SDS011;4663;49.120;9.730;2023-02-01T17:08:11;19.03;;;17.60;;
9254;SDS011;4663;49.120;9.730;2023-02-01T17:13:15;17.00;;;15.70;;
9254;SDS011;4663;49.120;9.730;2023-02-01T17:15:47;18.80;;;17.47;;
9254;SDS011;4663;49.120;9.730;2023-02-01T17:18:18;17.60;;;16.10;;
9254;SDS011;4663;49.120;9.730;2023-02-01T17:20:44;18.53;;;17.23;;
9254;SDS011;4663;49.120;9.730;2023-02-01T17:23:12;18.80;;;17.20;;
9254;SDS011;4663;49.120;9.730;2023-02-01T17:25:38;18.90;;;17.20;;
9254;SDS011;4663;49.120;9.730;2023-02-01T17:28:03;18.17;;;16.47;;
9254;SDS011;4663;49.120;9.730;2023-02-01T17:30:29;21.17;;;18.93;;
9254;SDS011;4663;49.120;9.730;2023-02-01T17:33:27;17.90;;;16.43;;
9254;SDS011;4663;49.120;9.730;2023-02-01T17:36:21;17.07;;;15.77;;
9254;SDS011;4663;49.120;9.730;2023-02-01T17:39:12;18.13;;;16.30;;
9254;SDS011;4663;49.120;9.730;2023-02-01T17:42:03;18.77;;;17.27;;
9254;SDS011;4663;49.120;9.730;2023-02-01T17:45:01;19.00;;;16.93;;
9254;SDS011;4663;49.120;9.730;2023-02-01T17:48:21;18.70;;;17.40;;
9254;SDS011;4663;49.120;9.730;2023-02-01T17:51:16;19.00;;;17.50;;
9254;SDS011;4663;49.120;9.730;2023-02-01T17:54:13;19.03;;;17.30;;
9254;SDS011;4663;49.120;9.730;2023-02-01T17:57:09;19.70;;;18.00;;
9254;SDS011;4663;49.120;9.730;2023-02-01T18:00:04;19.20;;;17.87;;
9254;SDS011;4663;49.120;9.730;2023-02-01T18:02:55;20.63;;;18.90;;
9254;SDS011;4663;49.120;9.730;2023-02-01T18:05:45;21.70;;;20.03;;
9254;SDS011;4663;49.120;9.730;2023-02-01T18:08:36;20.30;;;19.00;;
9254;SDS011;4663;49.120;9.730;2023-02-01T18:11:27;21.43;;;19.70;;
9254;SDS011;4663;49.120;9.730;2023-02-01T18:14:17;22.23;;;20.50;;
9254;SDS011;4663;49.120;9.730;2023-02-01T18:17:07;22.10;;;20.70;;
9254;SDS011;4663;49.120;9.730;2023-02-01T18:19:58;23.10;;;21.37;;
9254;SDS011;4663;49.120;9.730;2023-02-01T18:22:50;23.57;;;22.10;;
9254;SDS011;4663;49.120;9.730;2023-02-01T18:25:40;27.93;;;25.83;;
9254;SDS011;4663;49.120;9.730;2023-02-01T18:28:31;29.50;;;27.23;;
9254;SDS011;4663;49.120;9.730;2023-02-01T18:31:23;28.97;;;27.07;;
9254;SDS011;4663;49.120;9.730;2023-02-01T18:34:16;28.33;;;26.17;;
9254;SDS011;4663;49.120;9.730;2023-02-01T18:37:06;24.63;;;22.93;;
9254;SDS011;4663;49.120;9.730;2023-02-01T18:39:57;24.57;;;22.57;;
9254;SDS011;4663;49.120;9.730;2023-02-01T18:42:48;24.33;;;22.60;;
9254;SDS011;4663;49.120;9.730;2023-02-01T18:45:43;23.80;;;21.83;;
9254;SDS011;4663;49.120;9.730;2023-02-01T18:48:34;22.33;;;20.60;;
9254;SDS011;4663;49.120;9.730;2023-02-01T18:51:25;23.63;;;21.73;;
9254;SDS011;4663;49.120;9.730;2023-02-01T18:54:16;21.97;;;20.67;;
9254;SDS011;4663;49.120;9.730;2023-02-01T18:57:07;19.07;;;17.57;;
9254;SDS011;4663;49.120;9.730;2023-02-01T18:59:58;18.30;;;17.00;;
9254;SDS011;4663;49.120;9.730;2023-02-01T19:02:49;17.63;;;16.37;;
9254;SDS011;4663;49.120;9.730;2023-02-01T19:05:40;18.03;;;16.63;;
9254;SDS011;4663;49.120;9.730;2023-02-01T19:08:31;17.93;;;16.47;;
9254;SDS011;4663;49.120;9.730;2023-02-01T19:11:22;17.13;;;15.63;;
9254;SDS011;4663;49.120;9.730;2023-02-01T19:14:13;16.13;;;14.93;;
9254;SDS011;4663;49.120;9.730;2023-02-01T19:17:03;15.83;;;14.23;;
9254;SDS011;4663;49.120;9.730;2023-02-01T19:19:54;15.03;;;13.80;;
9254;SDS011;4663;49.120;9.730;2023-02-01T19:22:46;16.13;;;14.93;;
9254;SDS011;4663;49.120;9.730;2023-02-01T19:25:36;15.70;;;14.27;;
9254;SDS011;4663;49.120;9.730;2023-02-01T19:28:27;15.20;;;13.97;;
9254;SDS011;4663;49.120;9.730;2023-02-01T19:31:18;15.03;;;14.03;;
9254;SDS011;4663;49.120;9.730;2023-02-01T19:34:09;15.00;;;13.93;;
9254;SDS011;4663;49.120;9.730;2023-02-01T19:37:00;15.47;;;14.07;;
9254;SDS011;4663;49.120;9.730;2023-02-01T19:39:51;16.13;;;15.03;;
9254;SDS011;4663;49.120;9.730;2023-02-01T19:42:43;15.43;;;13.93;;
9254;SDS011;4663;49.120;9.730;2023-02-01T19:45:33;16.70;;;15.27;;
9254;SDS011;4663;49.120;9.730;2023-02-01T19:48:23;15.33;;;13.87;;
9254;SDS011;4663;49.120;9.730;2023-02-01T19:51:14;18.10;;;16.57;;
9254;SDS011;4663;49.120;9.730;2023-02-01T19:54:06;18.37;;;16.93;;
9254;SDS011;4663;49.120;9.730;2023-02-01T19:56:58;19.13;;;17.83;;
9254;SDS011;4663;49.120;9.730;2023-02-01T19:59:48;20.00;;;18.77;;
9254;SDS011;4663;49.120;9.730;2023-02-01T20:02:38;18.77;;;17.53;;
9254;SDS011;4663;49.120;9.730;2023-02-01T20:05:29;19.20;;;17.77;;
9254;SDS011;4663;49.120;9.730;2023-02-01T20:08:20;21.33;;;19.77;;
9254;SDS011;4663;49.120;9.730;2023-02-01T20:11:14;22.33;;;20.60;;
9254;SDS011;4663;49.120;9.730;2023-02-01T20:14:04;22.70;;;21.17;;
9254;SDS011;4663;49.120;9.730;2023-02-01T20:16:55;22.83;;;21.13;;
9254;SDS011;4663;49.120;9.730;2023-02-01T20:19:46;21.97;;;20.63;;
9254;SDS011;4663;49.120;9.730;2023-02-01T20:22:37;24.80;;;23.20;;
9254;SDS011;4663;49.120;9.730;2023-02-01T20:25:28;26.43;;;24.80;;
9254;SDS011;4663;49.120;9.730;2023-02-01T20:28:18;27.30;;;25.17;;
9254;SDS011;4663;49.120;9.730;2023-02-01T20:31:09;26.43;;;24.67;;
9254;SDS011;4663;49.120;9.730;2023-02-01T20:34:00;33.57;;;31.67;;
9254;SDS011;4663;49.120;9.730;2023-02-01T20:36:51;28.23;;;26.37;;
9254;SDS011;4663;49.120;9.730;2023-02-01T20:39:41;31.17;;;29.00;;
9254;SDS011;4663;49.120;9.730;2023-02-01T20:42:32;33.43;;;31.20;;
9254;SDS011;4663;49.120;9.730;2023-02-01T20:44:59;42.43;;;39.67;;
9254;SDS011;4663;49.120;9.730;2023-02-01T20:47:24;49.50;;;46.17;;
9254;SDS011;4663;49.120;9.730;2023-02-01T20:49:50;47.10;;;43.83;;
9254;SDS011;4663;49.120;9.730;2023-02-01T20:52:15;44.20;;;41.23;;
9254;SDS011;4663;49.120;9.730;2023-02-01T20:54:41;43.83;;;41.03;;
9254;SDS011;4663;49.120;9.730;2023-02-01T20:57:06;46.70;;;43.70;;
9254;SDS011;4663;49.120;9.730;2023-02-01T20:59:32;44.47;;;41.57;;
9254;SDS011;4663;49.120;9.730;2023-02-01T21:01:57;43.27;;;40.53;;
9254;SDS011;4663;49.120;9.730;2023-02-01T21:04:23;43.17;;;40.37;;
9254;SDS011;4663;49.120;9.730;2023-02-01T21:06:53;45.73;;;42.93;;
9254;SDS011;4663;49.120;9.730;2023-02-01T21:09:19;40.90;;;38.70;;
9254;SDS011;4663;49.120;9.730;2023-02-01T21:11:45;49.57;;;46.40;;
9254;SDS011;4663;49.120;9.730;2023-02-01T21:14:10;43.63;;;41.10;;
9254;SDS011;4663;49.120;9.730;2023-02-01T21:16:36;48.93;;;45.97;;
9254;SDS011;4663;49.120;9.730;2023-02-01T21:19:02;46.07;;;43.23;;
9254;SDS011;4663;49.120;9.730;2023-02-01T21:21:28;43.40;;;40.40;;
9254;SDS011;4663;49.120;9.730;2023-02-01T21:23:54;48.57;;;45.60;;
9254;SDS011;4663;49.120;9.730;2023-02-01T21:26:20;49.60;;;46.13;;
9254;SDS011;4663;49.120;9.730;2023-02-01T21:28:48;44.03;;;41.27;;
9254;SDS011;4663;49.120;9.730;2023-02-01T21:31:15;47.43;;;44.77;;
9254;SDS011;4663;49.120;9.730;2023-02-01T21:33:42;46.47;;;43.70;;
9254;SDS011;4663;49.120;9.730;2023-02-01T21:36:10;45.17;;;42.73;;
9254;SDS011;4663;49.120;9.730;2023-02-01T21:38:49;44.67;;;41.83;;
9254;SDS011;4663;49.120;9.730;2023-02-01T21:41:17;47.07;;;43.97;;
9254;SDS011;4663;49.120;9.730;2023-02-01T21:44:03;41.97;;;39.67;;
9254;SDS011;4663;49.120;9.730;2023-02-01T21:46:29;46.70;;;43.83;;
9254;SDS011;4663;49.120;9.730;2023-02-01T21:48:55;47.90;;;45.07;;
9254;SDS011;4663;49.120;9.730;2023-02-01T21:51:20;46.67;;;44.10;;
9254;SDS011;4663;49.120;9.730;2023-02-01T21:53:46;45.77;;;43.37;;
9254;SDS011;4663;49.120;9.730;2023-02-01T21:56:11;50.63;;;47.80;;
9254;SDS011;4663;49.120;9.730;2023-02-01T21:58:36;47.70;;;45.23;;
9254;SDS011;4663;49.120;9.730;2023-02-01T22:01:02;45.13;;;42.83;;
9254;SDS011;4663;49.120;9.730;2023-02-01T22:03:28;52.27;;;49.47;;
9254;SDS011;4663;49.120;9.730;2023-02-01T22:05:53;51.77;;;48.47;;
9254;SDS011;4663;49.120;9.730;2023-02-01T22:08:19;49.13;;;46.40;;
9254;SDS011;4663;49.120;9.730;2023-02-01T22:10:44;47.77;;;45.00;;
9254;SDS011;4663;49.120;9.730;2023-02-01T22:13:10;51.27;;;48.27;;
9254;SDS011;4663;49.120;9.730;2023-02-01T22:15:36;47.37;;;44.80;;
9254;SDS011;4663;49.120;9.730;2023-02-01T22:18:01;48.53;;;45.97;;
9254;SDS011;4663;49.120;9.730;2023-02-01T22:20:27;49.17;;;46.17;;
9254;SDS011;4663;49.120;9.730;2023-02-01T22:22:53;49.73;;;46.80;;
9254;SDS011;4663;49.120;9.730;2023-02-01T22:25:20;43.53;;;40.90;;
9254;SDS011;4663;49.120;9.730;2023-02-01T22:27:46;42.57;;;39.93;;
9254;SDS011;4663;49.120;9.730;2023-02-01T22:30:11;39.80;;;37.23;;
9254;SDS011;4663;49.120;9.730;2023-02-01T22:32:37;30.87;;;28.57;;
9254;SDS011;4663;49.120;9.730;2023-02-01T22:35:02;26.37;;;24.47;;
9254;SDS011;4663;49.120;9.730;2023-02-01T22:37:29;22.70;;;21.20;;
9254;SDS011;4663;49.120;9.730;2023-02-01T22:39:54;22.83;;;20.87;;
9254;SDS011;4663;49.120;9.730;2023-02-01T22:42:22;21.73;;;20.17;;
9254;SDS011;4663;49.120;9.730;2023-02-01T22:44:48;23.20;;;21.50;;
9254;SDS011;4663;49.120;9.730;2023-02-01T22:47:13;24.50;;;22.97;;
9254;SDS011;4663;49.120;9.730;2023-02-01T22:49:39;23.27;;;21.33;;
9254;SDS011;4663;49.120;9.730;2023-02-01T22:52:04;22.40;;;20.90;;
9254;SDS011;4663;49.120;9.730;2023-02-01T22:54:29;24.73;;;22.83;;
9254;SDS011;4663;49.120;9.730;2023-02-01T22:56:55;27.70;;;25.80;;
9254;SDS011;4663;49.120;9.730;2023-02-01T22:59:20;30.43;;;28.50;;
9254;SDS011;4663;49.120;9.730;2023-02-01T23:01:45;34.00;;;31.80;;
9254;SDS011;4663;49.120;9.730;2023-02-01T23:04:12;33.53;;;31.60;;
9254;SDS011;4663;49.120;9.730;2023-02-01T23:06:39;36.97;;;34.77;;
9254;SDS011;4663;49.120;9.730;2023-02-01T23:09:06;42.87;;;40.27;;
9254;SDS011;4663;49.120;9.730;2023-02-01T23:11:37;37.37;;;35.17;;
9254;SDS011;4663;49.120;9.730;2023-02-01T23:14:03;42.17;;;39.73;;
9254;SDS011;4663;49.120;9.730;2023-02-01T23:16:29;41.07;;;38.30;;
9254;SDS011;4663;49.120;9.730;2023-02-01T23:18:54;39.03;;;36.63;;
9254;SDS011;4663;49.120;9.730;2023-02-01T23:21:21;32.90;;;30.83;;
9254;SDS011;4663;49.120;9.730;2023-02-01T23:23:49;32.67;;;30.57;;
9254;SDS011;4663;49.120;9.730;2023-02-01T23:26:16;31.67;;;29.67;;
9254;SDS011;4663;49.120;9.730;2023-02-01T23:28:42;29.90;;;28.13;;
9254;SDS011;4663;49.120;9.730;2023-02-01T23:31:09;33.10;;;30.80;;
9254;SDS011;4663;49.120;9.730;2023-02-01T23:33:36;28.93;;;27.23;;
9254;SDS011;4663;49.120;9.730;2023-02-01T23:36:02;27.67;;;25.43;;
9254;SDS011;4663;49.120;9.730;2023-02-01T23:38:29;25.47;;;23.60;;
9254;SDS011;4663;49.120;9.730;2023-02-01T23:41:03;25.97;;;24.17;;
9254;SDS011;4663;49.120;9.730;2023-02-01T23:43:30;24.03;;;22.53;;
9254;SDS011;4663;49.120;9.730;2023-02-01T23:46:15;25.97;;;23.80;;
9254;SDS011;4663;49.120;9.730;2023-02-01T23:48:42;22.70;;;20.90;;
9254;SDS011;4663;49.120;9.730;2023-02-01T23:51:08;21.93;;;20.33;;
9254;SDS011;4663;49.120;9.730;2023-02-01T23:53:33;21.53;;;20.20;;
9254;SDS011;4663;49.120;9.730;2023-02-01T23:55:59;22.73;;;21.13;;
9254;SDS011;4663;49.120;9.730;2023-02-01T23:58:25;22.17;;;20.57;;
